Hiwassee, Virginia
Current Conditions -  °F | °C
As of 3:35 PM on Tuesday 25 Nov 2014 (Local Time) from KPSK Reporting Station
Clear Clear  
Wind Chill: 54°   Ceiling: Unl
Heat Index: 54°   Visibility: 10mi
Dew Point: 28°   Wind: 5mph
Humidity: 36%   Direction: 170°S
Pressure: 30.05"   Gusts: NA
Location:  36.97°N, 80.71°W
Report Text: KPSK 252035Z AUTO 17004KT 10SM CLR 12/M02 A3005 RMK AO2 T01221025
Loading
Personal Weather Stations






























Interactive Weather Map New forecast layout! Learn more

10-Day Weather Forecast

Advertisements
Track Severe Weather on mobile